sensor_id;sensor_type;location;lat;lon;timestamp;P1;durP1;ratioP1;P2;durP2;ratioP2
69511;SDS011;56709;52.036;4.644;2022-07-29T00:02:07;4.20;;;1.75;;
69511;SDS011;56709;52.036;4.644;2022-07-29T00:04:36;2.97;;;1.70;;
69511;SDS011;56709;52.036;4.644;2022-07-29T00:07:02;3.33;;;1.58;;
69511;SDS011;56709;52.036;4.644;2022-07-29T00:09:28;2.40;;;1.15;;
69511;SDS011;56709;52.036;4.644;2022-07-29T00:11:53;2.05;;;1.50;;
69511;SDS011;56709;52.036;4.644;2022-07-29T00:14:20;5.63;;;1.50;;
69511;SDS011;56709;52.036;4.644;2022-07-29T00:16:45;3.20;;;1.77;;
69511;SDS011;56709;52.036;4.644;2022-07-29T00:19:11;2.97;;;1.55;;
69511;SDS011;56709;52.036;4.644;2022-07-29T00:21:36;4.05;;;1.58;;
69511;SDS011;56709;52.036;4.644;2022-07-29T00:24:02;5.32;;;1.48;;
69511;SDS011;56709;52.036;4.644;2022-07-29T00:26:27;3.30;;;1.48;;
69511;SDS011;56709;52.036;4.644;2022-07-29T00:28:57;4.45;;;1.55;;
69511;SDS011;56709;52.036;4.644;2022-07-29T00:31:23;2.15;;;1.40;;
69511;SDS011;56709;52.036;4.644;2022-07-29T00:33:48;4.25;;;1.60;;
69511;SDS011;56709;52.036;4.644;2022-07-29T00:36:14;3.15;;;1.70;;
69511;SDS011;56709;52.036;4.644;2022-07-29T00:38:39;3.05;;;1.38;;
69511;SDS011;56709;52.036;4.644;2022-07-29T00:41:09;4.43;;;1.95;;
69511;SDS011;56709;52.036;4.644;2022-07-29T00:43:34;4.53;;;1.90;;
69511;SDS011;56709;52.036;4.644;2022-07-29T00:46:00;4.53;;;1.73;;
69511;SDS011;56709;52.036;4.644;2022-07-29T00:48:25;3.75;;;2.03;;
69511;SDS011;56709;52.036;4.644;2022-07-29T00:50:50;9.23;;;1.80;;
69511;SDS011;56709;52.036;4.644;2022-07-29T00:53:16;3.17;;;1.63;;
69511;SDS011;56709;52.036;4.644;2022-07-29T00:55:41;5.15;;;1.38;;
69511;SDS011;56709;52.036;4.644;2022-07-29T00:58:07;5.40;;;1.30;;
69511;SDS011;56709;52.036;4.644;2022-07-29T01:00:33;1.80;;;1.27;;
69511;SDS011;56709;52.036;4.644;2022-07-29T01:02:58;2.45;;;1.70;;
69511;SDS011;56709;52.036;4.644;2022-07-29T01:05:25;2.67;;;1.50;;
69511;SDS011;56709;52.036;4.644;2022-07-29T01:07:52;4.30;;;1.67;;
69511;SDS011;56709;52.036;4.644;2022-07-29T01:10:18;3.30;;;1.67;;
69511;SDS011;56709;52.036;4.644;2022-07-29T01:12:45;3.80;;;2.13;;
69511;SDS011;56709;52.036;4.644;2022-07-29T01:15:11;3.67;;;1.67;;
69511;SDS011;56709;52.036;4.644;2022-07-29T01:26:47;3.15;;;1.50;;
69511;SDS011;56709;52.036;4.644;2022-07-29T01:29:26;5.47;;;1.90;;
69511;SDS011;56709;52.036;4.644;2022-07-29T01:37:19;3.72;;;1.80;;
69511;SDS011;56709;52.036;4.644;2022-07-29T01:39:46;4.78;;;2.17;;
69511;SDS011;56709;52.036;4.644;2022-07-29T01:45:00;4.22;;;1.65;;
69511;SDS011;56709;52.036;4.644;2022-07-29T01:47:33;3.03;;;1.88;;
69511;SDS011;56709;52.036;4.644;2022-07-29T01:50:03;2.40;;;1.75;;
69511;SDS011;56709;52.036;4.644;2022-07-29T01:52:46;5.45;;;1.73;;
69511;SDS011;56709;52.036;4.644;2022-07-29T01:55:41;2.50;;;1.60;;
69511;SDS011;56709;52.036;4.644;2022-07-29T01:58:09;4.75;;;1.75;;
69511;SDS011;56709;52.036;4.644;2022-07-29T02:00:36;2.63;;;1.77;;
69511;SDS011;56709;52.036;4.644;2022-07-29T02:03:04;6.67;;;2.00;;
69511;SDS011;56709;52.036;4.644;2022-07-29T02:05:32;5.00;;;1.85;;
69511;SDS011;56709;52.036;4.644;2022-07-29T02:07:59;6.72;;;1.73;;
69511;SDS011;56709;52.036;4.644;2022-07-29T02:10:26;4.45;;;1.90;;
69511;SDS011;56709;52.036;4.644;2022-07-29T02:12:54;6.55;;;1.90;;
69511;SDS011;56709;52.036;4.644;2022-07-29T02:15:20;3.55;;;1.75;;
69511;SDS011;56709;52.036;4.644;2022-07-29T02:17:55;3.20;;;1.80;;
69511;SDS011;56709;52.036;4.644;2022-07-29T02:20:23;5.38;;;1.70;;
69511;SDS011;56709;52.036;4.644;2022-07-29T02:22:50;5.63;;;2.08;;
69511;SDS011;56709;52.036;4.644;2022-07-29T02:25:17;3.22;;;2.03;;
69511;SDS011;56709;52.036;4.644;2022-07-29T02:27:43;3.75;;;1.80;;
69511;SDS011;56709;52.036;4.644;2022-07-29T02:30:09;4.95;;;2.10;;
69511;SDS011;56709;52.036;4.644;2022-07-29T02:32:36;2.70;;;1.98;;
69511;SDS011;56709;52.036;4.644;2022-07-29T02:35:03;4.77;;;2.07;;
69511;SDS011;56709;52.036;4.644;2022-07-29T02:37:29;4.13;;;1.90;;
69511;SDS011;56709;52.036;4.644;2022-07-29T02:39:55;5.13;;;2.00;;
69511;SDS011;56709;52.036;4.644;2022-07-29T02:42:22;3.63;;;2.03;;
69511;SDS011;56709;52.036;4.644;2022-07-29T02:44:49;4.75;;;2.20;;
69511;SDS011;56709;52.036;4.644;2022-07-29T02:52:47;3.17;;;1.80;;
69511;SDS011;56709;52.036;4.644;2022-07-29T02:58:27;5.72;;;1.90;;
69511;SDS011;56709;52.036;4.644;2022-07-29T03:00:58;5.45;;;2.35;;
69511;SDS011;56709;52.036;4.644;2022-07-29T03:03:33;3.85;;;2.10;;
69511;SDS011;56709;52.036;4.644;2022-07-29T03:06:01;5.03;;;2.58;;
69511;SDS011;56709;52.036;4.644;2022-07-29T03:08:26;4.07;;;2.28;;
69511;SDS011;56709;52.036;4.644;2022-07-29T03:10:52;6.43;;;2.30;;
69511;SDS011;56709;52.036;4.644;2022-07-29T03:13:18;4.85;;;2.10;;
69511;SDS011;56709;52.036;4.644;2022-07-29T03:15:45;4.55;;;2.05;;
69511;SDS011;56709;52.036;4.644;2022-07-29T03:20:37;5.93;;;2.47;;
69511;SDS011;56709;52.036;4.644;2022-07-29T03:23:03;4.07;;;2.70;;
69511;SDS011;56709;52.036;4.644;2022-07-29T03:25:29;7.13;;;2.45;;
69511;SDS011;56709;52.036;4.644;2022-07-29T03:27:55;5.28;;;2.58;;
69511;SDS011;56709;52.036;4.644;2022-07-29T03:30:21;3.55;;;2.28;;
69511;SDS011;56709;52.036;4.644;2022-07-29T03:32:48;5.85;;;2.85;;
69511;SDS011;56709;52.036;4.644;2022-07-29T03:35:17;4.93;;;2.80;;
69511;SDS011;56709;52.036;4.644;2022-07-29T03:37:43;3.63;;;2.70;;
69511;SDS011;56709;52.036;4.644;2022-07-29T03:40:13;4.80;;;2.65;;
69511;SDS011;56709;52.036;4.644;2022-07-29T03:42:42;4.60;;;2.58;;
69511;SDS011;56709;52.036;4.644;2022-07-29T03:45:09;4.47;;;3.30;;
69511;SDS011;56709;52.036;4.644;2022-07-29T03:47:38;5.72;;;2.65;;
69511;SDS011;56709;52.036;4.644;2022-07-29T03:50:08;3.97;;;2.45;;
69511;SDS011;56709;52.036;4.644;2022-07-29T03:52:37;5.18;;;2.80;;
69511;SDS011;56709;52.036;4.644;2022-07-29T03:55:02;7.93;;;2.97;;
69511;SDS011;56709;52.036;4.644;2022-07-29T03:57:28;7.05;;;2.53;;
69511;SDS011;56709;52.036;4.644;2022-07-29T03:59:55;4.82;;;2.80;;
69511;SDS011;56709;52.036;4.644;2022-07-29T04:02:21;4.45;;;2.50;;
69511;SDS011;56709;52.036;4.644;2022-07-29T04:04:47;4.40;;;2.65;;
69511;SDS011;56709;52.036;4.644;2022-07-29T04:07:13;6.70;;;3.15;;
69511;SDS011;56709;52.036;4.644;2022-07-29T04:09:39;5.17;;;3.13;;
69511;SDS011;56709;52.036;4.644;2022-07-29T04:12:05;6.32;;;2.70;;
69511;SDS011;56709;52.036;4.644;2022-07-29T04:14:31;5.18;;;3.00;;
69511;SDS011;56709;52.036;4.644;2022-07-29T04:16:57;4.70;;;3.20;;
69511;SDS011;56709;52.036;4.644;2022-07-29T04:19:23;3.50;;;2.67;;
69511;SDS011;56709;52.036;4.644;2022-07-29T04:21:48;3.72;;;2.33;;
69511;SDS011;56709;52.036;4.644;2022-07-29T04:24:14;5.22;;;2.50;;
69511;SDS011;56709;52.036;4.644;2022-07-29T04:26:39;6.43;;;2.70;;
69511;SDS011;56709;52.036;4.644;2022-07-29T04:29:05;6.47;;;3.15;;
69511;SDS011;56709;52.036;4.644;2022-07-29T04:31:30;5.13;;;3.08;;
69511;SDS011;56709;52.036;4.644;2022-07-29T04:33:56;3.55;;;2.67;;
69511;SDS011;56709;52.036;4.644;2022-07-29T04:36:21;4.00;;;2.40;;
69511;SDS011;56709;52.036;4.644;2022-07-29T04:38:46;4.30;;;2.97;;
69511;SDS011;56709;52.036;4.644;2022-07-29T04:41:12;3.55;;;2.38;;
69511;SDS011;56709;52.036;4.644;2022-07-29T04:43:37;4.90;;;2.92;;
69511;SDS011;56709;52.036;4.644;2022-07-29T04:46:03;5.80;;;2.88;;
69511;SDS011;56709;52.036;4.644;2022-07-29T04:48:29;4.18;;;2.85;;
69511;SDS011;56709;52.036;4.644;2022-07-29T04:50:54;4.13;;;2.70;;
69511;SDS011;56709;52.036;4.644;2022-07-29T04:53:20;7.28;;;4.20;;
69511;SDS011;56709;52.036;4.644;2022-07-29T04:55:46;5.88;;;2.65;;
69511;SDS011;56709;52.036;4.644;2022-07-29T04:58:11;6.45;;;2.75;;
69511;SDS011;56709;52.036;4.644;2022-07-29T05:00:36;4.72;;;2.58;;
69511;SDS011;56709;52.036;4.644;2022-07-29T05:03:03;4.40;;;2.70;;
69511;SDS011;56709;52.036;4.644;2022-07-29T05:05:28;7.22;;;3.25;;
69511;SDS011;56709;52.036;4.644;2022-07-29T05:07:54;6.10;;;2.88;;
69511;SDS011;56709;52.036;4.644;2022-07-29T05:10:20;5.38;;;2.47;;
69511;SDS011;56709;52.036;4.644;2022-07-29T05:12:45;7.05;;;3.20;;
69511;SDS011;56709;52.036;4.644;2022-07-29T05:15:11;5.53;;;2.80;;
69511;SDS011;56709;52.036;4.644;2022-07-29T05:17:36;4.95;;;2.50;;
69511;SDS011;56709;52.036;4.644;2022-07-29T05:20:02;4.60;;;2.50;;
69511;SDS011;56709;52.036;4.644;2022-07-29T05:22:28;5.78;;;2.90;;
69511;SDS011;56709;52.036;4.644;2022-07-29T05:24:53;6.97;;;2.42;;
69511;SDS011;56709;52.036;4.644;2022-07-29T05:27:19;4.88;;;2.65;;
69511;SDS011;56709;52.036;4.644;2022-07-29T05:29:44;4.25;;;2.58;;
69511;SDS011;56709;52.036;4.644;2022-07-29T05:32:09;4.20;;;2.70;;
69511;SDS011;56709;52.036;4.644;2022-07-29T05:34:35;2.75;;;2.30;;
69511;SDS011;56709;52.036;4.644;2022-07-29T05:37:00;4.43;;;1.95;;
69511;SDS011;56709;52.036;4.644;2022-07-29T05:39:26;4.38;;;2.65;;
69511;SDS011;56709;52.036;4.644;2022-07-29T05:41:51;7.13;;;2.28;;
69511;SDS011;56709;52.036;4.644;2022-07-29T05:44:17;3.70;;;2.30;;
69511;SDS011;56709;52.036;4.644;2022-07-29T05:46:42;3.78;;;2.22;;
69511;SDS011;56709;52.036;4.644;2022-07-29T05:49:07;5.15;;;2.58;;
69511;SDS011;56709;52.036;4.644;2022-07-29T05:51:33;5.38;;;1.95;;
69511;SDS011;56709;52.036;4.644;2022-07-29T05:53:59;6.88;;;2.10;;
69511;SDS011;56709;52.036;4.644;2022-07-29T05:56:24;4.00;;;2.22;;
69511;SDS011;56709;52.036;4.644;2022-07-29T05:58:50;4.47;;;2.15;;
69511;SDS011;56709;52.036;4.644;2022-07-29T06:01:16;2.08;;;1.70;;
69511;SDS011;56709;52.036;4.644;2022-07-29T06:03:42;3.95;;;2.05;;
69511;SDS011;56709;52.036;4.644;2022-07-29T06:06:11;7.10;;;2.38;;
69511;SDS011;56709;52.036;4.644;2022-07-29T06:08:37;5.45;;;2.08;;
69511;SDS011;56709;52.036;4.644;2022-07-29T06:11:03;5.90;;;1.98;;
69511;SDS011;56709;52.036;4.644;2022-07-29T06:13:29;4.67;;;1.97;;
69511;SDS011;56709;52.036;4.644;2022-07-29T06:15:55;3.95;;;1.80;;
69511;SDS011;56709;52.036;4.644;2022-07-29T06:18:21;8.98;;;2.28;;
69511;SDS011;56709;52.036;4.644;2022-07-29T06:20:49;3.17;;;1.95;;
69511;SDS011;56709;52.036;4.644;2022-07-29T06:23:15;6.53;;;2.15;;
69511;SDS011;56709;52.036;4.644;2022-07-29T06:25:40;5.93;;;1.90;;
69511;SDS011;56709;52.036;4.644;2022-07-29T06:28:06;4.95;;;1.98;;
69511;SDS011;56709;52.036;4.644;2022-07-29T06:30:31;4.57;;;2.25;;
69511;SDS011;56709;52.036;4.644;2022-07-29T06:32:56;7.63;;;2.20;;
69511;SDS011;56709;52.036;4.644;2022-07-29T06:35:22;3.88;;;2.15;;
69511;SDS011;56709;52.036;4.644;2022-07-29T06:37:47;6.88;;;2.20;;
69511;SDS011;56709;52.036;4.644;2022-07-29T06:40:13;7.60;;;2.42;;
69511;SDS011;56709;52.036;4.644;2022-07-29T06:42:57;5.70;;;2.20;;
69511;SDS011;56709;52.036;4.644;2022-07-29T06:45:22;6.50;;;2.47;;
69511;SDS011;56709;52.036;4.644;2022-07-29T06:47:48;5.80;;;2.20;;
69511;SDS011;56709;52.036;4.644;2022-07-29T06:50:14;6.45;;;2.33;;
69511;SDS011;56709;52.036;4.644;2022-07-29T06:52:40;4.70;;;1.90;;
69511;SDS011;56709;52.036;4.644;2022-07-29T06:55:06;3.92;;;2.42;;
69511;SDS011;56709;52.036;4.644;2022-07-29T06:57:32;6.30;;;2.05;;
69511;SDS011;56709;52.036;4.644;2022-07-29T06:59:58;3.33;;;2.10;;
69511;SDS011;56709;52.036;4.644;2022-07-29T07:02:23;6.10;;;2.08;;
69511;SDS011;56709;52.036;4.644;2022-07-29T07:04:49;5.32;;;2.20;;
69511;SDS011;56709;52.036;4.644;2022-07-29T07:07:14;4.72;;;2.20;;
69511;SDS011;56709;52.036;4.644;2022-07-29T07:09:40;4.68;;;2.33;;
69511;SDS011;56709;52.036;4.644;2022-07-29T07:12:05;7.70;;;2.90;;
69511;SDS011;56709;52.036;4.644;2022-07-29T07:14:31;5.95;;;2.17;;
69511;SDS011;56709;52.036;4.644;2022-07-29T07:16:59;6.93;;;1.90;;
69511;SDS011;56709;52.036;4.644;2022-07-29T07:19:25;4.18;;;2.13;;
69511;SDS011;56709;52.036;4.644;2022-07-29T07:21:52;6.30;;;2.23;;
69511;SDS011;56709;52.036;4.644;2022-07-29T07:24:18;6.53;;;2.30;;
69511;SDS011;56709;52.036;4.644;2022-07-29T07:26:43;4.80;;;2.38;;
69511;SDS011;56709;52.036;4.644;2022-07-29T07:29:08;3.72;;;2.22;;
69511;SDS011;56709;52.036;4.644;2022-07-29T07:31:34;7.57;;;2.30;;
69511;SDS011;56709;52.036;4.644;2022-07-29T07:34:00;7.80;;;2.60;;
69511;SDS011;56709;52.036;4.644;2022-07-29T07:36:25;7.45;;;2.13;;
69511;SDS011;56709;52.036;4.644;2022-07-29T07:38:51;7.28;;;2.55;;
69511;SDS011;56709;52.036;4.644;2022-07-29T07:41:16;7.50;;;2.30;;
69511;SDS011;56709;52.036;4.644;2022-07-29T07:43:41;6.80;;;2.13;;
69511;SDS011;56709;52.036;4.644;2022-07-29T07:46:07;6.05;;;2.40;;
69511;SDS011;56709;52.036;4.644;2022-07-29T07:48:32;12.35;;;2.42;;
69511;SDS011;56709;52.036;4.644;2022-07-29T07:50:59;6.40;;;2.08;;
69511;SDS011;56709;52.036;4.644;2022-07-29T07:53:25;5.45;;;2.28;;
69511;SDS011;56709;52.036;4.644;2022-07-29T07:55:51;4.40;;;2.20;;
69511;SDS011;56709;52.036;4.644;2022-07-29T07:58:16;4.20;;;2.28;;
69511;SDS011;56709;52.036;4.644;2022-07-29T08:00:41;4.25;;;2.38;;
69511;SDS011;56709;52.036;4.644;2022-07-29T08:03:07;4.78;;;2.50;;
69511;SDS011;56709;52.036;4.644;2022-07-29T08:05:33;9.38;;;2.67;;
69511;SDS011;56709;52.036;4.644;2022-07-29T08:07:58;8.48;;;2.28;;
69511;SDS011;56709;52.036;4.644;2022-07-29T08:10:24;5.40;;;2.33;;
69511;SDS011;56709;52.036;4.644;2022-07-29T08:13:08;5.82;;;2.17;;
69511;SDS011;56709;52.036;4.644;2022-07-29T08:15:36;7.45;;;2.15;;
69511;SDS011;56709;52.036;4.644;2022-07-29T08:18:04;4.18;;;2.13;;
69511;SDS011;56709;52.036;4.644;2022-07-29T08:20:29;2.58;;;1.83;;
69511;SDS011;56709;52.036;4.644;2022-07-29T08:22:56;6.68;;;2.28;;
69511;SDS011;56709;52.036;4.644;2022-07-29T08:25:22;3.42;;;2.20;;
69511;SDS011;56709;52.036;4.644;2022-07-29T08:27:47;9.30;;;2.20;;
69511;SDS011;56709;52.036;4.644;2022-07-29T08:30:13;3.63;;;2.10;;
69511;SDS011;56709;52.036;4.644;2022-07-29T08:32:38;5.20;;;2.22;;
69511;SDS011;56709;52.036;4.644;2022-07-29T08:35:04;3.53;;;1.90;;
69511;SDS011;56709;52.036;4.644;2022-07-29T08:37:30;4.47;;;1.95;;
69511;SDS011;56709;52.036;4.644;2022-07-29T08:39:55;3.67;;;2.40;;
69511;SDS011;56709;52.036;4.644;2022-07-29T08:42:20;4.40;;;2.22;;
69511;SDS011;56709;52.036;4.644;2022-07-29T08:44:46;5.87;;;2.33;;
69511;SDS011;56709;52.036;4.644;2022-07-29T08:47:15;7.82;;;2.30;;
69511;SDS011;56709;52.036;4.644;2022-07-29T08:49:40;5.70;;;2.38;;
69511;SDS011;56709;52.036;4.644;2022-07-29T08:52:06;4.20;;;2.33;;
69511;SDS011;56709;52.036;4.644;2022-07-29T08:54:31;7.10;;;2.47;;
69511;SDS011;56709;52.036;4.644;2022-07-29T08:56:57;4.05;;;2.42;;
69511;SDS011;56709;52.036;4.644;2022-07-29T08:59:24;13.33;;;3.13;;
69511;SDS011;56709;52.036;4.644;2022-07-29T09:01:52;14.70;;;3.20;;
69511;SDS011;56709;52.036;4.644;2022-07-29T09:04:18;8.68;;;2.70;;
69511;SDS011;56709;52.036;4.644;2022-07-29T09:06:45;4.00;;;2.55;;
69511;SDS011;56709;52.036;4.644;2022-07-29T09:09:13;4.45;;;2.40;;
69511;SDS011;56709;52.036;4.644;2022-07-29T09:11:39;8.77;;;2.60;;
69511;SDS011;56709;52.036;4.644;2022-07-29T09:14:05;6.83;;;3.00;;
69511;SDS011;56709;52.036;4.644;2022-07-29T09:19:19;11.68;;;2.80;;
69511;SDS011;56709;52.036;4.644;2022-07-29T09:21:49;6.72;;;2.85;;
69511;SDS011;56709;52.036;4.644;2022-07-29T09:24:24;4.97;;;2.90;;
69511;SDS011;56709;52.036;4.644;2022-07-29T09:26:59;4.73;;;2.50;;
69511;SDS011;56709;52.036;4.644;2022-07-29T09:29:24;5.20;;;2.47;;
69511;SDS011;56709;52.036;4.644;2022-07-29T09:31:51;6.07;;;2.67;;
69511;SDS011;56709;52.036;4.644;2022-07-29T09:36:47;5.38;;;2.10;;
69511;SDS011;56709;52.036;4.644;2022-07-29T09:39:14;11.98;;;2.65;;
69511;SDS011;56709;52.036;4.644;2022-07-29T09:41:52;6.40;;;2.35;;
69511;SDS011;56709;52.036;4.644;2022-07-29T09:44:19;3.65;;;2.42;;
69511;SDS011;56709;52.036;4.644;2022-07-29T09:47:01;3.65;;;1.95;;
69511;SDS011;56709;52.036;4.644;2022-07-29T09:49:31;3.65;;;2.10;;
69511;SDS011;56709;52.036;4.644;2022-07-29T09:52:05;3.97;;;2.22;;
69511;SDS011;56709;52.036;4.644;2022-07-29T09:54:32;7.05;;;2.42;;
69511;SDS011;56709;52.036;4.644;2022-07-29T09:57:02;7.13;;;2.30;;
69511;SDS011;56709;52.036;4.644;2022-07-29T09:59:28;9.60;;;2.45;;
69511;SDS011;56709;52.036;4.644;2022-07-29T10:01:53;6.50;;;2.30;;
69511;SDS011;56709;52.036;4.644;2022-07-29T10:04:19;5.57;;;2.20;;
69511;SDS011;56709;52.036;4.644;2022-07-29T10:09:23;6.57;;;1.90;;
69511;SDS011;56709;52.036;4.644;2022-07-29T10:14:33;9.30;;;2.20;;
69511;SDS011;56709;52.036;4.644;2022-07-29T10:16:59;6.13;;;2.53;;
69511;SDS011;56709;52.036;4.644;2022-07-29T10:19:26;4.32;;;2.35;;
69511;SDS011;56709;52.036;4.644;2022-07-29T10:21:57;4.03;;;2.08;;
69511;SDS011;56709;52.036;4.644;2022-07-29T10:24:24;4.97;;;1.92;;
69511;SDS011;56709;52.036;4.644;2022-07-29T10:26:54;3.85;;;1.67;;
69511;SDS011;56709;52.036;4.644;2022-07-29T10:29:21;4.43;;;2.20;;
69511;SDS011;56709;52.036;4.644;2022-07-29T10:42:22;3.38;;;1.80;;
69511;SDS011;56709;52.036;4.644;2022-07-29T10:44:49;6.82;;;2.10;;
69511;SDS011;56709;52.036;4.644;2022-07-29T10:50:00;5.15;;;2.03;;
69511;SDS011;56709;52.036;4.644;2022-07-29T10:53:13;8.80;;;2.70;;
69511;SDS011;56709;52.036;4.644;2022-07-29T10:55:35;7.13;;;2.00;;
69511;SDS011;56709;52.036;4.644;2022-07-29T10:58:15;8.02;;;1.65;;
69511;SDS011;56709;52.036;4.644;2022-07-29T11:03:06;15.27;;;2.87;;
69511;SDS011;56709;52.036;4.644;2022-07-29T11:05:51;6.13;;;1.80;;
69511;SDS011;56709;52.036;4.644;2022-07-29T11:08:18;7.13;;;2.00;;
69511;SDS011;56709;52.036;4.644;2022-07-29T11:10:49;5.95;;;1.90;;
69511;SDS011;56709;52.036;4.644;2022-07-29T11:16:08;6.65;;;1.88;;
69511;SDS011;56709;52.036;4.644;2022-07-29T11:18:34;3.10;;;1.50;;
69511;SDS011;56709;52.036;4.644;2022-07-29T11:20:59;5.23;;;1.63;;
69511;SDS011;56709;52.036;4.644;2022-07-29T11:23:34;5.57;;;1.60;;
69511;SDS011;56709;52.036;4.644;2022-07-29T11:28:39;4.22;;;1.75;;
69511;SDS011;56709;52.036;4.644;2022-07-29T11:31:14;8.55;;;1.90;;
69511;SDS011;56709;52.036;4.644;2022-07-29T11:33:41;4.85;;;1.42;;
69511;SDS011;56709;52.036;4.644;2022-07-29T11:36:07;3.57;;;1.30;;
69511;SDS011;56709;52.036;4.644;2022-07-29T11:38:37;5.20;;;1.67;;
69511;SDS011;56709;52.036;4.644;2022-07-29T11:43:58;5.28;;;1.77;;
69511;SDS011;56709;52.036;4.644;2022-07-29T11:49:19;5.53;;;1.45;;
69511;SDS011;56709;52.036;4.644;2022-07-29T11:51:56;4.45;;;1.30;;
69511;SDS011;56709;52.036;4.644;2022-07-29T11:54:34;8.25;;;2.00;;
69511;SDS011;56709;52.036;4.644;2022-07-29T11:57:00;4.13;;;1.55;;
69511;SDS011;56709;52.036;4.644;2022-07-29T11:59:26;4.67;;;1.43;;
69511;SDS011;56709;52.036;4.644;2022-07-29T12:01:54;5.80;;;1.77;;
69511;SDS011;56709;52.036;4.644;2022-07-29T12:04:23;5.25;;;1.50;;
69511;SDS011;56709;52.036;4.644;2022-07-29T12:06:49;4.55;;;1.92;;
69511;SDS011;56709;52.036;4.644;2022-07-29T12:09:15;5.10;;;1.60;;
69511;SDS011;56709;52.036;4.644;2022-07-29T12:11:42;8.45;;;2.33;;
69511;SDS011;56709;52.036;4.644;2022-07-29T12:14:08;3.90;;;1.20;;
69511;SDS011;56709;52.036;4.644;2022-07-29T12:16:36;7.17;;;1.43;;
69511;SDS011;56709;52.036;4.644;2022-07-29T12:19:02;3.22;;;1.35;;
69511;SDS011;56709;52.036;4.644;2022-07-29T12:21:51;3.20;;;1.13;;
69511;SDS011;56709;52.036;4.644;2022-07-29T12:24:15;5.35;;;1.50;;
69511;SDS011;56709;52.036;4.644;2022-07-29T12:26:49;9.82;;;1.23;;
69511;SDS011;56709;52.036;4.644;2022-07-29T12:29:16;6.30;;;1.20;;
69511;SDS011;56709;52.036;4.644;2022-07-29T12:31:42;3.65;;;1.10;;
69511;SDS011;56709;52.036;4.644;2022-07-29T12:34:09;1.88;;;0.98;;
69511;SDS011;56709;52.036;4.644;2022-07-29T12:36:35;3.05;;;1.35;;
69511;SDS011;56709;52.036;4.644;2022-07-29T12:39:01;8.57;;;1.50;;
69511;SDS011;56709;52.036;4.644;2022-07-29T12:41:28;7.60;;;1.63;;
69511;SDS011;56709;52.036;4.644;2022-07-29T12:43:53;4.15;;;1.65;;
69511;SDS011;56709;52.036;4.644;2022-07-29T12:46:19;5.10;;;1.50;;
69511;SDS011;56709;52.036;4.644;2022-07-29T12:48:44;5.55;;;2.03;;
69511;SDS011;56709;52.036;4.644;2022-07-29T12:51:10;3.92;;;1.60;;
69511;SDS011;56709;52.036;4.644;2022-07-29T12:53:39;8.15;;;2.40;;
69511;SDS011;56709;52.036;4.644;2022-07-29T12:56:04;3.83;;;1.50;;
69511;SDS011;56709;52.036;4.644;2022-07-29T13:03:27;4.55;;;2.05;;
69511;SDS011;56709;52.036;4.644;2022-07-29T13:05:52;6.30;;;1.80;;
69511;SDS011;56709;52.036;4.644;2022-07-29T13:08:18;7.47;;;2.30;;
69511;SDS011;56709;52.036;4.644;2022-07-29T13:10:45;7.60;;;2.30;;
69511;SDS011;56709;52.036;4.644;2022-07-29T13:13:11;6.57;;;2.50;;
69511;SDS011;56709;52.036;4.644;2022-07-29T13:15:38;10.07;;;2.88;;
69511;SDS011;56709;52.036;4.644;2022-07-29T13:18:25;5.90;;;2.00;;
69511;SDS011;56709;52.036;4.644;2022-07-29T13:20:52;6.00;;;2.38;;
69511;SDS011;56709;52.036;4.644;2022-07-29T13:23:17;6.43;;;2.23;;
69511;SDS011;56709;52.036;4.644;2022-07-29T13:25:43;4.93;;;1.80;;
69511;SDS011;56709;52.036;4.644;2022-07-29T13:28:08;6.68;;;1.77;;
69511;SDS011;56709;52.036;4.644;2022-07-29T13:30:33;7.77;;;2.10;;
69511;SDS011;56709;52.036;4.644;2022-07-29T13:33:02;4.68;;;1.58;;
69511;SDS011;56709;52.036;4.644;2022-07-29T13:35:27;7.28;;;1.90;;
69511;SDS011;56709;52.036;4.644;2022-07-29T13:37:54;5.45;;;1.55;;
69511;SDS011;56709;52.036;4.644;2022-07-29T13:40:20;3.70;;;1.48;;
69511;SDS011;56709;52.036;4.644;2022-07-29T13:45:11;5.37;;;2.00;;
69511;SDS011;56709;52.036;4.644;2022-07-29T13:50:02;5.32;;;1.75;;
69511;SDS011;56709;52.036;4.644;2022-07-29T13:52:29;3.22;;;1.70;;
69511;SDS011;56709;52.036;4.644;2022-07-29T13:54:54;2.88;;;1.42;;
69511;SDS011;56709;52.036;4.644;2022-07-29T13:57:19;5.05;;;1.50;;
69511;SDS011;56709;52.036;4.644;2022-07-29T13:59:45;3.57;;;1.33;;
69511;SDS011;56709;52.036;4.644;2022-07-29T14:02:10;5.63;;;1.70;;
69511;SDS011;56709;52.036;4.644;2022-07-29T14:04:37;4.82;;;1.65;;
69511;SDS011;56709;52.036;4.644;2022-07-29T14:07:02;5.28;;;1.60;;
69511;SDS011;56709;52.036;4.644;2022-07-29T14:09:28;3.30;;;1.60;;
69511;SDS011;56709;52.036;4.644;2022-07-29T14:11:53;3.05;;;1.63;;
69511;SDS011;56709;52.036;4.644;2022-07-29T14:14:19;3.92;;;1.85;;
69511;SDS011;56709;52.036;4.644;2022-07-29T14:16:45;4.35;;;2.10;;
69511;SDS011;56709;52.036;4.644;2022-07-29T14:19:10;5.47;;;2.37;;
69511;SDS011;56709;52.036;4.644;2022-07-29T14:21:36;3.00;;;1.80;;
69511;SDS011;56709;52.036;4.644;2022-07-29T14:26:28;3.90;;;1.50;;
69511;SDS011;56709;52.036;4.644;2022-07-29T14:28:53;4.27;;;1.90;;
69511;SDS011;56709;52.036;4.644;2022-07-29T14:31:18;5.13;;;1.97;;
69511;SDS011;56709;52.036;4.644;2022-07-29T14:33:44;6.33;;;2.37;;
69511;SDS011;56709;52.036;4.644;2022-07-29T14:36:09;5.30;;;1.70;;
69511;SDS011;56709;52.036;4.644;2022-07-29T14:38:35;7.27;;;1.67;;
69511;SDS011;56709;52.036;4.644;2022-07-29T14:41:02;6.03;;;1.55;;
69511;SDS011;56709;52.036;4.644;2022-07-29T14:43:28;5.37;;;1.73;;
69511;SDS011;56709;52.036;4.644;2022-07-29T14:45:53;3.97;;;1.57;;
69511;SDS011;56709;52.036;4.644;2022-07-29T14:48:18;4.00;;;1.43;;
69511;SDS011;56709;52.036;4.644;2022-07-29T14:50:44;6.43;;;2.07;;
69511;SDS011;56709;52.036;4.644;2022-07-29T14:53:09;4.87;;;2.00;;
69511;SDS011;56709;52.036;4.644;2022-07-29T14:55:37;3.85;;;1.45;;
69511;SDS011;56709;52.036;4.644;2022-07-29T14:58:02;5.07;;;2.07;;
69511;SDS011;56709;52.036;4.644;2022-07-29T15:00:28;5.80;;;1.77;;
69511;SDS011;56709;52.036;4.644;2022-07-29T15:02:57;5.13;;;1.33;;
69511;SDS011;56709;52.036;4.644;2022-07-29T15:05:23;3.47;;;1.40;;
69511;SDS011;56709;52.036;4.644;2022-07-29T15:07:48;4.20;;;1.80;;
69511;SDS011;56709;52.036;4.644;2022-07-29T15:10:14;5.33;;;2.03;;
69511;SDS011;56709;52.036;4.644;2022-07-29T15:12:39;5.47;;;1.60;;
69511;SDS011;56709;52.036;4.644;2022-07-29T15:15:05;3.43;;;1.90;;
69511;SDS011;56709;52.036;4.644;2022-07-29T15:17:32;4.03;;;1.88;;
69511;SDS011;56709;52.036;4.644;2022-07-29T15:19:57;4.57;;;1.80;;
69511;SDS011;56709;52.036;4.644;2022-07-29T15:22:23;2.83;;;1.50;;
69511;SDS011;56709;52.036;4.644;2022-07-29T15:24:48;4.00;;;1.57;;
69511;SDS011;56709;52.036;4.644;2022-07-29T15:27:13;4.50;;;1.60;;
69511;SDS011;56709;52.036;4.644;2022-07-29T15:29:40;3.33;;;1.87;;
69511;SDS011;56709;52.036;4.644;2022-07-29T15:32:06;6.72;;;2.65;;
69511;SDS011;56709;52.036;4.644;2022-07-29T15:34:32;3.87;;;1.80;;
69511;SDS011;56709;52.036;4.644;2022-07-29T15:36:57;6.60;;;1.77;;
69511;SDS011;56709;52.036;4.644;2022-07-29T15:39:22;5.13;;;1.50;;
69511;SDS011;56709;52.036;4.644;2022-07-29T15:41:48;5.50;;;1.57;;
69511;SDS011;56709;52.036;4.644;2022-07-29T15:44:14;4.00;;;1.75;;
69511;SDS011;56709;52.036;4.644;2022-07-29T15:46:42;7.27;;;2.00;;
69511;SDS011;56709;52.036;4.644;2022-07-29T15:49:26;3.75;;;1.48;;
69511;SDS011;56709;52.036;4.644;2022-07-29T15:51:56;2.67;;;1.40;;
69511;SDS011;56709;52.036;4.644;2022-07-29T15:54:23;4.55;;;1.40;;
69511;SDS011;56709;52.036;4.644;2022-07-29T15:56:48;6.80;;;1.80;;
69511;SDS011;56709;52.036;4.644;2022-07-29T15:59:14;5.17;;;2.00;;
69511;SDS011;56709;52.036;4.644;2022-07-29T16:01:39;4.60;;;1.90;;
69511;SDS011;56709;52.036;4.644;2022-07-29T16:04:05;8.30;;;1.67;;
69511;SDS011;56709;52.036;4.644;2022-07-29T16:06:30;4.53;;;1.83;;